createdAt,value
2018-10-16T00:00:24.830Z,0.00
2018-10-16T00:01:24.803Z,0.00
2018-10-16T00:02:24.776Z,0.00
2018-10-16T00:03:24.746Z,0.00
2018-10-16T00:04:24.720Z,0.00
2018-10-16T00:05:24.691Z,0.00
2018-10-16T00:06:24.663Z,0.00
2018-10-16T00:07:24.634Z,0.00
2018-10-16T00:08:24.606Z,0.00
2018-10-16T00:09:24.578Z,0.00
2018-10-16T00:10:24.550Z,0.00
2018-10-16T00:11:24.520Z,0.00
2018-10-16T00:12:24.494Z,0.00
2018-10-16T00:13:24.466Z,0.00
2018-10-16T00:14:24.438Z,0.00
2018-10-16T00:15:24.410Z,0.00
2018-10-16T00:16:24.381Z,0.00
2018-10-16T00:17:24.375Z,0.00
2018-10-16T00:18:24.326Z,0.00
2018-10-16T00:19:24.299Z,0.00
2018-10-16T00:20:24.268Z,0.00
2018-10-16T00:21:24.239Z,0.00
2018-10-16T00:22:24.215Z,0.00
2018-10-16T00:23:24.185Z,0.00
2018-10-16T00:24:24.156Z,0.00
2018-10-16T00:25:24.128Z,0.00
2018-10-16T00:26:24.100Z,0.00
2018-10-16T00:27:24.071Z,0.00
2018-10-16T00:28:24.044Z,0.00
2018-10-16T00:29:24.016Z,0.00
2018-10-16T00:30:23.986Z,0.00
2018-10-16T00:31:23.958Z,0.00
2018-10-16T00:32:23.962Z,0.00
2018-10-16T00:33:23.901Z,0.00
2018-10-16T00:34:23.875Z,0.00
2018-10-16T00:35:23.845Z,0.00
2018-10-16T00:36:23.819Z,0.00
2018-10-16T00:37:23.788Z,0.00
2018-10-16T00:38:23.761Z,0.00
2018-10-16T00:39:23.731Z,0.00
2018-10-16T00:40:23.703Z,0.00
2018-10-16T00:41:23.675Z,0.00
2018-10-16T00:42:23.648Z,0.00
2018-10-16T00:43:23.619Z,0.00
2018-10-16T00:44:23.590Z,0.00
2018-10-16T00:45:23.562Z,0.00
2018-10-16T00:46:23.533Z,0.00
2018-10-16T00:47:23.505Z,0.00
2018-10-16T00:48:23.476Z,0.00
2018-10-16T00:49:23.448Z,0.00
2018-10-16T00:50:23.420Z,0.00
2018-10-16T00:51:23.392Z,0.00
2018-10-16T00:52:23.363Z,0.00
2018-10-16T00:53:23.334Z,0.00
2018-10-16T00:54:23.307Z,0.00
2018-10-16T00:55:23.277Z,0.00
2018-10-16T00:56:23.248Z,0.00
2018-10-16T00:57:23.246Z,0.00
2018-10-16T00:58:23.191Z,0.00
2018-10-16T00:59:23.162Z,0.00
2018-10-16T01:00:23.136Z,0.00
2018-10-16T01:01:23.106Z,0.00
2018-10-16T01:02:23.078Z,0.00
2018-10-16T01:03:23.050Z,0.00
2018-10-16T01:04:23.020Z,0.00
2018-10-16T01:05:22.995Z,0.00
2018-10-16T01:06:22.965Z,0.00
2018-10-16T01:07:22.934Z,0.00
2018-10-16T01:08:22.909Z,0.00
2018-10-16T01:09:22.876Z,0.00
2018-10-16T01:10:22.849Z,0.00
2018-10-16T01:11:22.822Z,0.00
2018-10-16T01:12:22.792Z,0.00
2018-10-16T01:13:22.764Z,0.00
2018-10-16T01:14:22.736Z,0.00
2018-10-16T01:15:22.707Z,0.00
2018-10-16T01:16:22.678Z,0.00
2018-10-16T01:17:22.650Z,0.00
2018-10-16T01:18:22.623Z,0.00
2018-10-16T01:19:22.592Z,0.00
2018-10-16T01:20:22.569Z,0.00
2018-10-16T01:21:22.537Z,0.00
2018-10-16T01:22:22.507Z,0.00
2018-10-16T01:23:22.477Z,0.00
2018-10-16T01:24:22.450Z,0.00
2018-10-16T01:25:22.422Z,0.00
2018-10-16T01:26:22.393Z,0.00
2018-10-16T01:27:22.363Z,0.00
2018-10-16T01:28:22.336Z,0.00
2018-10-16T01:29:22.309Z,0.00
2018-10-16T01:30:22.279Z,0.00
2018-10-16T01:31:22.250Z,0.00
2018-10-16T01:32:22.222Z,0.00
2018-10-16T01:33:22.193Z,0.00
2018-10-16T01:34:22.164Z,0.00
2018-10-16T01:35:22.136Z,0.00
2018-10-16T01:36:22.106Z,0.00
2018-10-16T01:37:22.077Z,0.00
2018-10-16T01:38:22.052Z,0.00
2018-10-16T01:39:22.019Z,0.00
2018-10-16T01:40:21.991Z,0.00
2018-10-16T01:41:21.963Z,0.00
2018-10-16T01:42:21.933Z,0.00
2018-10-16T01:43:21.905Z,0.00
2018-10-16T01:44:21.877Z,0.00
2018-10-16T01:45:21.850Z,0.00
2018-10-16T01:46:21.819Z,0.00
2018-10-16T01:47:21.792Z,0.00
2018-10-16T01:48:21.763Z,0.00
2018-10-16T01:49:21.733Z,0.00
2018-10-16T01:50:21.706Z,0.00
2018-10-16T01:51:21.678Z,0.00
2018-10-16T01:52:21.649Z,0.00
2018-10-16T01:53:21.619Z,0.00
2018-10-16T01:54:21.595Z,0.00
2018-10-16T01:55:21.563Z,0.00
2018-10-16T01:56:21.535Z,0.00
2018-10-16T01:57:21.506Z,0.00
2018-10-16T01:58:21.476Z,0.00
2018-10-16T01:59:21.446Z,0.00
2018-10-16T02:00:21.420Z,0.00
2018-10-16T02:01:21.389Z,0.00
2018-10-16T02:02:21.361Z,0.00
2018-10-16T02:03:21.331Z,0.00
2018-10-16T02:04:21.305Z,0.00
2018-10-16T02:05:21.277Z,0.00
2018-10-16T02:06:21.246Z,0.00
2018-10-16T02:07:21.216Z,0.00
2018-10-16T02:08:21.189Z,0.00
2018-10-16T02:09:21.159Z,0.00
2018-10-16T02:10:21.131Z,0.00
2018-10-16T02:11:21.101Z,0.00
2018-10-16T02:12:21.073Z,0.00
2018-10-16T02:13:21.044Z,0.00
2018-10-16T02:14:21.016Z,0.00
2018-10-16T02:15:20.985Z,0.00
2018-10-16T02:16:20.958Z,0.00
2018-10-16T02:17:20.929Z,0.00
2018-10-16T02:18:20.901Z,0.00
2018-10-16T02:19:20.871Z,0.00
2018-10-16T02:20:20.843Z,0.00
2018-10-16T02:21:20.815Z,0.00
2018-10-16T02:22:20.787Z,0.00
2018-10-16T02:23:20.755Z,0.00
2018-10-16T02:24:20.728Z,0.00
2018-10-16T02:25:20.698Z,0.00
2018-10-16T02:26:20.669Z,0.00
2018-10-16T02:27:20.640Z,0.00
2018-10-16T02:28:20.611Z,0.00
2018-10-16T02:29:20.583Z,0.00
2018-10-16T02:30:20.556Z,0.00
2018-10-16T02:31:20.525Z,0.00
2018-10-16T02:32:20.499Z,0.00
2018-10-16T02:33:20.469Z,0.00
2018-10-16T02:34:20.442Z,0.00
2018-10-16T02:35:20.410Z,0.00
2018-10-16T02:36:20.380Z,0.00
2018-10-16T02:37:20.353Z,0.00
2018-10-16T02:38:20.324Z,0.00
2018-10-16T02:39:20.294Z,0.00
2018-10-16T02:40:20.266Z,0.00
2018-10-16T02:41:20.240Z,0.00
2018-10-16T02:42:20.207Z,0.00
2018-10-16T02:43:20.179Z,0.00
2018-10-16T02:44:20.149Z,0.00
2018-10-16T02:45:20.122Z,0.00
2018-10-16T02:46:20.093Z,0.00
2018-10-16T02:47:20.063Z,0.00
2018-10-16T02:48:20.034Z,0.00
2018-10-16T02:49:20.007Z,0.00
2018-10-16T02:50:19.978Z,0.00
2018-10-16T02:51:19.948Z,0.00
2018-10-16T02:52:19.917Z,0.00
2018-10-16T02:53:19.890Z,0.00
2018-10-16T02:54:19.866Z,0.00
2018-10-16T02:55:19.832Z,0.00
2018-10-16T02:56:19.804Z,0.00
2018-10-16T02:57:19.775Z,0.00
2018-10-16T02:58:19.745Z,0.00
2018-10-16T02:59:19.715Z,0.00
2018-10-16T03:00:19.706Z,0.00
2018-10-16T03:01:19.658Z,0.00
2018-10-16T03:02:19.629Z,0.00
2018-10-16T03:03:19.600Z,0.00
2018-10-16T03:04:19.571Z,0.00
2018-10-16T03:05:19.542Z,0.00
2018-10-16T03:06:19.514Z,0.00
2018-10-16T03:07:19.485Z,0.00
2018-10-16T03:08:19.456Z,0.00
2018-10-16T03:09:19.425Z,0.00
2018-10-16T03:10:19.397Z,0.00
2018-10-16T03:11:19.368Z,0.00
2018-10-16T03:12:19.339Z,0.00
2018-10-16T03:13:19.313Z,0.00
2018-10-16T03:14:19.280Z,0.00
2018-10-16T03:15:19.258Z,0.00
2018-10-16T03:16:19.223Z,0.00
2018-10-16T03:17:19.192Z,0.00
2018-10-16T03:18:19.165Z,0.00
2018-10-16T03:19:19.136Z,0.00
2018-10-16T03:20:19.167Z,0.00
2018-10-16T03:21:19.081Z,0.00
2018-10-16T03:22:19.052Z,0.00
2018-10-16T03:23:19.023Z,0.00
2018-10-16T03:24:18.990Z,0.00
2018-10-16T03:25:18.965Z,0.00
2018-10-16T03:26:18.932Z,0.00
2018-10-16T03:27:18.903Z,0.00
2018-10-16T03:28:18.876Z,0.00
2018-10-16T03:29:18.844Z,0.00
2018-10-16T03:30:18.826Z,0.00
2018-10-16T03:31:18.785Z,0.00
2018-10-16T03:32:18.759Z,0.00
2018-10-16T03:33:18.729Z,0.00
2018-10-16T03:34:18.699Z,0.00
2018-10-16T03:35:18.669Z,0.00
2018-10-16T03:36:18.645Z,0.00
2018-10-16T03:37:18.613Z,0.00
2018-10-16T03:38:18.584Z,0.00
2018-10-16T03:39:18.553Z,0.00
2018-10-16T03:40:18.524Z,0.00
2018-10-16T03:41:18.496Z,0.00
2018-10-16T03:42:18.472Z,0.00
2018-10-16T03:43:18.437Z,0.00
2018-10-16T03:44:18.407Z,0.00
2018-10-16T03:45:18.379Z,0.00
2018-10-16T03:46:18.349Z,0.00
2018-10-16T03:47:18.319Z,0.00
2018-10-16T03:48:18.293Z,0.00
2018-10-16T03:49:18.262Z,0.00
2018-10-16T03:50:18.235Z,0.00
2018-10-16T03:51:18.202Z,0.00
2018-10-16T03:52:18.175Z,0.00
2018-10-16T03:53:18.145Z,0.00
2018-10-16T03:54:18.116Z,0.00
2018-10-16T03:55:18.085Z,0.00
2018-10-16T03:56:18.060Z,0.00
2018-10-16T03:57:18.120Z,0.00
2018-10-16T03:58:18.000Z,0.00
2018-10-16T03:59:17.968Z,0.00
2018-10-16T04:00:17.940Z,0.00
2018-10-16T04:01:17.910Z,0.00
2018-10-16T04:02:17.883Z,0.00
2018-10-16T04:03:17.853Z,0.00
2018-10-16T04:04:17.823Z,0.00
2018-10-16T04:05:17.795Z,0.00
2018-10-16T04:06:17.764Z,0.00
2018-10-16T04:07:17.737Z,0.00
2018-10-16T04:08:17.706Z,0.00
2018-10-16T04:09:17.676Z,0.00
2018-10-16T04:10:17.648Z,0.00
2018-10-16T04:11:17.618Z,0.00
2018-10-16T04:12:17.597Z,0.00
2018-10-16T04:13:17.560Z,0.00
2018-10-16T04:14:17.534Z,0.00
2018-10-16T04:15:17.501Z,0.00
2018-10-16T04:16:17.475Z,0.00
2018-10-16T04:17:17.444Z,0.00
2018-10-16T04:18:17.413Z,0.00
2018-10-16T04:19:17.375Z,0.00
2018-10-16T04:20:17.347Z,0.00
2018-10-16T04:21:17.316Z,0.00
2018-10-16T04:22:17.341Z,0.00
2018-10-16T04:23:17.256Z,0.00
2018-10-16T04:24:17.229Z,0.00
2018-10-16T04:25:17.200Z,0.00
2018-10-16T04:26:17.171Z,0.00
2018-10-16T04:27:17.141Z,0.00
2018-10-16T04:28:17.110Z,0.00
2018-10-16T04:29:17.170Z,0.00
2018-10-16T04:30:17.053Z,0.00
2018-10-16T04:31:17.022Z,0.00
2018-10-16T04:32:16.994Z,0.00
2018-10-16T04:33:16.964Z,0.00
2018-10-16T04:34:16.936Z,0.00
2018-10-16T04:35:16.906Z,0.00
2018-10-16T04:36:16.875Z,0.00
2018-10-16T04:37:16.847Z,0.00
2018-10-16T04:38:16.818Z,0.00
2018-10-16T04:39:16.790Z,0.00
2018-10-16T04:40:16.759Z,0.00
2018-10-16T04:41:16.730Z,0.00
2018-10-16T04:42:16.701Z,0.00
2018-10-16T04:43:16.671Z,0.00
2018-10-16T04:44:16.645Z,0.00
2018-10-16T04:45:16.612Z,0.00
2018-10-16T04:46:16.583Z,0.00
2018-10-16T04:47:16.552Z,0.00
2018-10-16T04:48:16.524Z,0.00
2018-10-16T04:49:16.495Z,0.00
2018-10-16T04:50:16.468Z,0.00
2018-10-16T04:51:16.436Z,0.00
2018-10-16T04:52:16.406Z,0.00
2018-10-16T04:53:16.377Z,0.00
2018-10-16T04:54:16.348Z,0.00
2018-10-16T04:55:16.382Z,0.00
2018-10-16T04:56:16.289Z,0.00
2018-10-16T04:57:16.261Z,0.00
2018-10-16T04:58:16.231Z,0.00
2018-10-16T04:59:16.202Z,0.00
2018-10-16T05:00:16.173Z,0.00
2018-10-16T05:01:16.143Z,0.00
2018-10-16T05:02:16.114Z,0.00
2018-10-16T05:03:16.085Z,0.00
2018-10-16T05:04:16.189Z,0.00
2018-10-16T05:05:16.027Z,0.00
2018-10-16T05:06:15.997Z,4.00
2018-10-16T05:07:15.967Z,4.00
2018-10-16T05:08:15.938Z,4.00
2018-10-16T05:09:15.908Z,4.00
2018-10-16T05:10:15.879Z,4.00
2018-10-16T05:11:15.849Z,4.00
2018-10-16T05:12:15.818Z,4.00
2018-10-16T05:13:15.850Z,8.00
2018-10-16T05:14:15.764Z,8.00
2018-10-16T05:15:15.730Z,12.00
2018-10-16T05:16:15.703Z,12.00
2018-10-16T05:17:15.672Z,16.00
2018-10-16T05:18:15.643Z,16.00
2018-10-16T05:19:15.765Z,20.00
2018-10-16T05:20:15.583Z,24.00
2018-10-16T05:21:15.554Z,32.00
2018-10-16T05:22:15.525Z,36.00
2018-10-16T05:23:15.494Z,44.00
2018-10-16T05:24:15.467Z,52.00
2018-10-16T05:25:15.436Z,60.00
2018-10-16T05:26:15.407Z,76.00
2018-10-16T05:27:15.378Z,88.00
2018-10-16T05:28:15.347Z,100.00
2018-10-16T05:29:15.319Z,120.00
2018-10-16T05:30:15.289Z,136.00
2018-10-16T05:31:15.359Z,156.00
2018-10-16T05:32:15.231Z,180.00
2018-10-16T05:33:15.199Z,204.00
2018-10-16T05:34:15.171Z,236.00
2018-10-16T05:35:15.140Z,260.00
2018-10-16T05:36:15.111Z,296.00
2018-10-16T05:37:15.081Z,328.00
2018-10-16T05:38:15.053Z,364.00
2018-10-16T05:39:15.084Z,404.00
2018-10-16T05:40:14.992Z,440.00
2018-10-16T05:41:14.964Z,480.00
2018-10-16T05:42:14.934Z,524.00
2018-10-16T05:43:14.907Z,572.00
2018-10-16T05:44:14.876Z,616.00
2018-10-16T05:45:14.845Z,664.00
2018-10-16T05:46:14.818Z,720.00
2018-10-16T05:47:14.788Z,772.00
2018-10-16T05:48:14.760Z,828.00
2018-10-16T05:49:14.728Z,888.00
2018-10-16T05:50:14.700Z,948.00
2018-10-16T05:51:14.670Z,1008.00
2018-10-16T05:52:14.641Z,1076.00
2018-10-16T05:53:14.616Z,1140.00
2018-10-16T05:54:14.600Z,1208.00
2018-10-16T05:55:14.553Z,1276.00
2018-10-16T05:56:14.521Z,1344.00
2018-10-16T05:57:14.491Z,1424.00
2018-10-16T05:58:14.464Z,1492.00
2018-10-16T05:59:14.432Z,1564.00
2018-10-16T06:00:14.402Z,1644.00
2018-10-16T06:01:14.379Z,1720.00
2018-10-16T06:02:14.345Z,1796.00
2018-10-16T06:03:14.316Z,1876.00
2018-10-16T06:04:14.287Z,1960.00
2018-10-16T06:05:14.256Z,2044.00
2018-10-16T06:06:14.229Z,2128.00
2018-10-16T06:07:14.197Z,2212.00
2018-10-16T06:08:14.169Z,2296.00
2018-10-16T06:09:14.138Z,2380.00
2018-10-16T06:10:14.111Z,2456.00
2018-10-16T06:11:14.082Z,2536.00
2018-10-16T06:12:14.080Z,2612.00
2018-10-16T06:13:14.022Z,2688.00
2018-10-16T06:14:13.992Z,2768.00
2018-10-16T06:15:13.961Z,2856.00
2018-10-16T06:16:13.933Z,2944.00
2018-10-16T06:17:13.904Z,3036.00
2018-10-16T06:18:13.876Z,3120.00
2018-10-16T06:19:13.845Z,3192.00
2018-10-16T06:20:13.816Z,3264.00
2018-10-16T06:21:13.790Z,3360.00
2018-10-16T06:22:13.761Z,3472.00
2018-10-16T06:23:13.728Z,3580.00
2018-10-16T06:24:13.813Z,3660.00
2018-10-16T06:25:13.672Z,3736.00
2018-10-16T06:26:13.690Z,3840.00
2018-10-16T06:27:13.612Z,3972.00
2018-10-16T06:28:13.582Z,4112.00
2018-10-16T06:29:13.555Z,4356.00
2018-10-16T06:30:13.567Z,4540.00
2018-10-16T06:31:13.502Z,4532.00
2018-10-16T06:32:13.467Z,4532.00
2018-10-16T06:33:13.521Z,4700.00
2018-10-16T06:34:13.409Z,4724.00
2018-10-16T06:35:13.379Z,4624.00
2018-10-16T06:36:13.351Z,4636.00
2018-10-16T06:37:13.323Z,4692.00
2018-10-16T06:38:13.294Z,4744.00
2018-10-16T06:39:13.265Z,4872.00
2018-10-16T06:40:13.237Z,4944.00
2018-10-16T06:41:13.313Z,4992.00
2018-10-16T06:42:13.179Z,5060.00
2018-10-16T06:43:13.153Z,5128.00
2018-10-16T06:44:13.125Z,5404.00
2018-10-16T06:45:13.095Z,5512.00
2018-10-16T06:46:13.067Z,5312.00
2018-10-16T06:47:13.108Z,5348.00
2018-10-16T06:48:13.157Z,5468.00
2018-10-16T06:49:12.981Z,6068.00
2018-10-16T06:50:12.953Z,6384.00
2018-10-16T06:51:12.924Z,6336.00
2018-10-16T06:52:12.895Z,6292.00
2018-10-16T06:53:12.926Z,5976.00
2018-10-16T06:54:12.840Z,5748.00
2018-10-16T06:55:12.878Z,5772.00
2018-10-16T06:56:12.782Z,5816.00
2018-10-16T06:57:12.755Z,5856.00
2018-10-16T06:58:12.728Z,5912.00
2018-10-16T06:59:12.698Z,5980.00
2018-10-16T07:00:12.679Z,6032.00
2018-10-16T07:01:12.643Z,6072.00
2018-10-16T07:02:12.618Z,6124.00
2018-10-16T07:03:12.586Z,6176.00
2018-10-16T07:04:12.563Z,6360.00
2018-10-16T07:05:12.531Z,6348.00
2018-10-16T07:06:12.504Z,6324.00
2018-10-16T07:07:12.613Z,6376.00
2018-10-16T07:08:12.448Z,6480.00
2018-10-16T07:09:12.422Z,6660.00
2018-10-16T07:10:12.394Z,6688.00
2018-10-16T07:11:12.366Z,6564.00
2018-10-16T07:12:12.338Z,6788.00
2018-10-16T07:13:12.312Z,7220.00
2018-10-16T07:14:12.285Z,7204.00
2018-10-16T07:15:12.257Z,6988.00
2018-10-16T07:16:12.230Z,7040.00
2018-10-16T07:17:12.201Z,7164.00
2018-10-16T07:18:12.175Z,7656.00
2018-10-16T07:19:12.145Z,8152.00
2018-10-16T07:20:12.120Z,7740.00
2018-10-16T07:21:12.111Z,7304.00
2018-10-16T07:22:12.067Z,7392.00
2018-10-16T07:23:12.088Z,7576.00
2018-10-16T07:24:12.012Z,7684.00
2018-10-16T07:25:11.985Z,8168.00
2018-10-16T07:26:11.959Z,7868.00
2018-10-16T07:27:11.942Z,7864.00
2018-10-16T07:28:11.905Z,7812.00
2018-10-16T07:29:11.878Z,9664.00
2018-10-16T07:30:11.915Z,10224.00
2018-10-16T07:31:11.825Z,8848.00
2018-10-16T07:32:11.798Z,9540.00
2018-10-16T07:33:11.771Z,10660.00
2018-10-16T07:34:11.746Z,11964.00
2018-10-16T07:35:11.724Z,14260.00
2018-10-16T07:36:11.694Z,15300.00
2018-10-16T07:37:11.684Z,15936.00
2018-10-16T07:38:11.768Z,16096.00
2018-10-16T07:39:11.640Z,16192.00
2018-10-16T07:40:11.596Z,16640.00
2018-10-16T07:41:11.567Z,16960.00
2018-10-16T07:42:11.544Z,17120.00
2018-10-16T07:43:11.518Z,17408.00
2018-10-16T07:44:11.497Z,17792.00
2018-10-16T07:45:11.470Z,18592.00
2018-10-16T07:46:11.446Z,18752.00
2018-10-16T07:47:11.422Z,18048.00
2018-10-16T07:48:11.400Z,16736.00
2018-10-16T07:49:11.377Z,15872.00
2018-10-16T07:50:11.353Z,16800.00
2018-10-16T07:51:11.360Z,17888.00
2018-10-16T07:52:11.306Z,18144.00
2018-10-16T07:53:11.286Z,18528.00
2018-10-16T07:54:11.264Z,18880.00
2018-10-16T07:55:11.245Z,18976.00
2018-10-16T07:56:11.221Z,19840.00
2018-10-16T07:57:11.258Z,20960.00
2018-10-16T07:58:11.176Z,21312.00
2018-10-16T07:59:11.153Z,21024.00
2018-10-16T08:00:11.130Z,20160.00
2018-10-16T08:01:11.110Z,19424.00
2018-10-16T08:02:11.089Z,19776.00
2018-10-16T08:03:11.090Z,20992.00
2018-10-16T08:04:11.045Z,21280.00
2018-10-16T08:05:11.025Z,21280.00
2018-10-16T08:06:11.004Z,21920.00
2018-10-16T08:07:10.984Z,22592.00
2018-10-16T08:08:10.963Z,22176.00
2018-10-16T08:09:10.946Z,21376.00
2018-10-16T08:10:10.925Z,21824.00
2018-10-16T08:11:10.932Z,22528.00
2018-10-16T08:12:10.881Z,22816.00
2018-10-16T08:13:10.862Z,23648.00
2018-10-16T08:14:10.842Z,25120.00
2018-10-16T08:15:10.824Z,25472.00
2018-10-16T08:16:10.802Z,24288.00
2018-10-16T08:17:10.860Z,23456.00
2018-10-16T08:18:10.762Z,24128.00
2018-10-16T08:19:10.742Z,25120.00
2018-10-16T08:20:10.735Z,25664.00
2018-10-16T08:21:10.703Z,25888.00
2018-10-16T08:22:10.682Z,26368.00
2018-10-16T08:23:10.667Z,27104.00
2018-10-16T08:24:10.649Z,27104.00
2018-10-16T08:25:10.623Z,26112.00
2018-10-16T08:26:10.610Z,25664.00
2018-10-16T08:27:10.586Z,26496.00
2018-10-16T08:28:10.565Z,28096.00
2018-10-16T08:29:10.547Z,29920.00
2018-10-16T08:30:10.640Z,30336.00
2018-10-16T08:31:10.508Z,29952.00
2018-10-16T08:32:10.492Z,29568.00
2018-10-16T08:33:10.470Z,29312.00
2018-10-16T08:34:10.491Z,28096.00
2018-10-16T08:35:10.435Z,25792.00
2018-10-16T08:36:10.440Z,24128.00
2018-10-16T08:37:10.505Z,24000.00
2018-10-16T08:38:10.375Z,25344.00
2018-10-16T08:39:10.356Z,26880.00
2018-10-16T08:40:10.339Z,27232.00
2018-10-16T08:41:10.320Z,25472.00
2018-10-16T08:42:10.306Z,22944.00
2018-10-16T08:43:10.281Z,22848.00
2018-10-16T08:44:10.265Z,24608.00
2018-10-16T08:45:10.400Z,26272.00
2018-10-16T08:46:10.230Z,25824.00
2018-10-16T08:47:10.209Z,25344.00
2018-10-16T08:48:10.190Z,25984.00
2018-10-16T08:49:10.173Z,27808.00
2018-10-16T08:50:10.155Z,29344.00
2018-10-16T08:51:10.135Z,29216.00
2018-10-16T08:52:10.120Z,28128.00
2018-10-16T08:53:10.100Z,27232.00
2018-10-16T08:54:10.082Z,26752.00
2018-10-16T08:55:10.148Z,28384.00
2018-10-16T08:56:10.044Z,31808.00
2018-10-16T08:57:10.028Z,32128.00
2018-10-16T08:58:10.014Z,29472.00
2018-10-16T08:59:09.992Z,28512.00
2018-10-16T09:00:09.973Z,29792.00
2018-10-16T09:01:09.957Z,31264.00
2018-10-16T09:02:09.938Z,30176.00
2018-10-16T09:03:09.924Z,28416.00
2018-10-16T09:04:09.902Z,28704.00
2018-10-16T09:05:09.886Z,29536.00
2018-10-16T09:06:09.869Z,29056.00
2018-10-16T09:07:09.850Z,28576.00
2018-10-16T09:08:09.832Z,29472.00
2018-10-16T09:09:09.816Z,30880.00
2018-10-16T09:10:09.799Z,30784.00
2018-10-16T09:11:09.782Z,30528.00
2018-10-16T09:12:09.763Z,30240.00
2018-10-16T09:13:09.808Z,31808.00
2018-10-16T09:14:09.783Z,32128.00
2018-10-16T09:15:09.711Z,31904.00
2018-10-16T09:16:09.696Z,31200.00
2018-10-16T09:17:09.676Z,30304.00
2018-10-16T09:18:09.658Z,30592.00
2018-10-16T09:19:09.641Z,32064.00
2018-10-16T09:20:09.624Z,34272.00
2018-10-16T09:21:09.605Z,36000.00
2018-10-16T09:22:09.590Z,36032.00
2018-10-16T09:23:09.573Z,34944.00
2018-10-16T09:24:09.556Z,33472.00
2018-10-16T09:25:09.612Z,33184.00
2018-10-16T09:26:09.521Z,33664.00
2018-10-16T09:27:09.505Z,34432.00
2018-10-16T09:28:09.489Z,34912.00
2018-10-16T09:29:09.475Z,35232.00
2018-10-16T09:30:09.455Z,34528.00
2018-10-16T09:31:09.508Z,33920.00
2018-10-16T09:32:09.421Z,33632.00
2018-10-16T09:33:09.405Z,35008.00
2018-10-16T09:34:09.393Z,36064.00
2018-10-16T09:35:09.373Z,36768.00
2018-10-16T09:36:09.356Z,37504.00
2018-10-16T09:37:09.340Z,38144.00
2018-10-16T09:38:09.373Z,37504.00
2018-10-16T09:39:09.306Z,36736.00
2018-10-16T09:40:09.291Z,35264.00
2018-10-16T09:41:09.273Z,35520.00
2018-10-16T09:42:09.259Z,36448.00
2018-10-16T09:43:09.240Z,37664.00
2018-10-16T09:44:09.226Z,37504.00
2018-10-16T09:45:09.211Z,36896.00
2018-10-16T09:46:09.195Z,36480.00
2018-10-16T09:47:09.178Z,37312.00
2018-10-16T09:48:09.163Z,39136.00
2018-10-16T09:49:09.145Z,40736.00
2018-10-16T09:50:09.132Z,41120.00
2018-10-16T09:51:09.120Z,41088.00
2018-10-16T09:52:09.099Z,42528.00
2018-10-16T09:53:09.083Z,44000.00
2018-10-16T09:54:09.067Z,44000.00
2018-10-16T09:55:09.054Z,43200.00
2018-10-16T09:56:09.035Z,42464.00
2018-10-16T09:57:09.019Z,40864.00
2018-10-16T09:58:09.005Z,40000.00
2018-10-16T09:59:08.987Z,40704.00
2018-10-16T10:00:08.973Z,41984.00
2018-10-16T10:01:08.957Z,42368.00
2018-10-16T10:02:08.944Z,41088.00
2018-10-16T10:03:08.927Z,40544.00
2018-10-16T10:04:08.912Z,39552.00
2018-10-16T10:05:08.897Z,38944.00
2018-10-16T10:06:08.884Z,39776.00
2018-10-16T10:07:08.865Z,41472.00
2018-10-16T10:08:08.849Z,43200.00
2018-10-16T10:09:08.835Z,43168.00
2018-10-16T10:10:08.819Z,41920.00
2018-10-16T10:11:08.923Z,41696.00
2018-10-16T10:12:08.788Z,40928.00
2018-10-16T10:13:08.773Z,40416.00
2018-10-16T10:14:08.758Z,39872.00
2018-10-16T10:15:08.745Z,39456.00
2018-10-16T10:16:08.727Z,37920.00
2018-10-16T10:17:08.711Z,37056.00
2018-10-16T10:18:08.696Z,38848.00
2018-10-16T10:19:08.680Z,41248.00
2018-10-16T10:20:08.665Z,42816.00
2018-10-16T10:21:08.647Z,41024.00
2018-10-16T10:22:08.636Z,37568.00
2018-10-16T10:23:08.665Z,35840.00
2018-10-16T10:24:08.602Z,36512.00
2018-10-16T10:25:08.653Z,37088.00
2018-10-16T10:26:08.572Z,36448.00
2018-10-16T10:27:08.556Z,36608.00
2018-10-16T10:28:08.542Z,37408.00
2018-10-16T10:29:08.525Z,37440.00
2018-10-16T10:30:08.510Z,36928.00
2018-10-16T10:31:08.493Z,36704.00
2018-10-16T10:32:08.478Z,37600.00
2018-10-16T10:33:08.462Z,39008.00
2018-10-16T10:34:08.447Z,39680.00
2018-10-16T10:35:08.430Z,38976.00
2018-10-16T10:36:08.416Z,37728.00
2018-10-16T10:37:08.401Z,35872.00
2018-10-16T10:38:08.384Z,34304.00
2018-10-16T10:39:08.367Z,33920.00
2018-10-16T10:40:08.351Z,33440.00
2018-10-16T10:41:08.336Z,32352.00
2018-10-16T10:42:08.376Z,31968.00
2018-10-16T10:43:08.306Z,32256.00
2018-10-16T10:44:08.290Z,31872.00
2018-10-16T10:45:08.274Z,31232.00
2018-10-16T10:46:08.261Z,32096.00
2018-10-16T10:47:08.245Z,32896.00
2018-10-16T10:48:08.230Z,33248.00
2018-10-16T10:49:08.219Z,32384.00
2018-10-16T10:50:08.306Z,30944.00
2018-10-16T10:51:08.475Z,30080.00
2018-10-16T10:52:08.168Z,31040.00
2018-10-16T10:53:08.156Z,32480.00
2018-10-16T10:54:08.141Z,32928.00
2018-10-16T10:55:08.122Z,31712.00
2018-10-16T10:56:08.107Z,29696.00
2018-10-16T10:57:08.363Z,29472.00
2018-10-16T10:58:08.077Z,30528.00
2018-10-16T10:59:08.062Z,31488.00
2018-10-16T11:00:08.047Z,30496.00
2018-10-16T11:01:08.032Z,29664.00
2018-10-16T11:02:08.017Z,30304.00
2018-10-16T11:03:08.092Z,31296.00
2018-10-16T11:04:07.986Z,31744.00
2018-10-16T11:05:07.977Z,31616.00
2018-10-16T11:06:07.956Z,31616.00
2018-10-16T11:07:07.940Z,32192.00
2018-10-16T11:08:07.929Z,33024.00
2018-10-16T11:09:07.934Z,33472.00
2018-10-16T11:10:07.897Z,33728.00
2018-10-16T11:11:07.881Z,33728.00
2018-10-16T11:12:07.865Z,33056.00
2018-10-16T11:13:07.850Z,32000.00
2018-10-16T11:14:07.835Z,32000.00
2018-10-16T11:15:07.874Z,33568.00
2018-10-16T11:16:07.806Z,35392.00
2018-10-16T11:17:07.791Z,35744.00
2018-10-16T11:18:07.776Z,34720.00
2018-10-16T11:19:07.760Z,33184.00
2018-10-16T11:20:07.745Z,31232.00
2018-10-16T11:21:07.861Z,29312.00
2018-10-16T11:22:07.714Z,30368.00
2018-10-16T11:23:07.700Z,33536.00
2018-10-16T11:24:07.685Z,36192.00
2018-10-16T11:25:07.721Z,36000.00
2018-10-16T11:26:07.654Z,34272.00
2018-10-16T11:27:07.660Z,32288.00
2018-10-16T11:28:07.623Z,32288.00
2018-10-16T11:29:07.607Z,33216.00
2018-10-16T11:30:07.626Z,34752.00
2018-10-16T11:31:07.577Z,35840.00
2018-10-16T11:32:07.563Z,35136.00
2018-10-16T11:33:07.595Z,32128.00
2018-10-16T11:34:07.532Z,31744.00
2018-10-16T11:35:07.517Z,34336.00
2018-10-16T11:36:07.506Z,38912.00
2018-10-16T11:37:07.599Z,42048.00
2018-10-16T11:38:07.472Z,41376.00
2018-10-16T11:39:07.508Z,37632.00
2018-10-16T11:40:07.440Z,33920.00
2018-10-16T11:41:07.428Z,32736.00
2018-10-16T11:42:07.410Z,34304.00
2018-10-16T11:43:07.395Z,36032.00
2018-10-16T11:44:07.384Z,36736.00
2018-10-16T11:45:07.399Z,36480.00
2018-10-16T11:46:07.352Z,34528.00
2018-10-16T11:47:07.335Z,35392.00
2018-10-16T11:48:07.321Z,28704.00
2018-10-16T11:49:07.307Z,33952.00
2018-10-16T11:50:07.337Z,35616.00
2018-10-16T11:51:07.276Z,37056.00
2018-10-16T11:52:07.274Z,37696.00
2018-10-16T11:53:07.244Z,37344.00
2018-10-16T11:54:07.230Z,37184.00
2018-10-16T11:55:07.214Z,36064.00
2018-10-16T11:56:07.314Z,35328.00
2018-10-16T11:57:07.185Z,35456.00
2018-10-16T11:58:07.170Z,36256.00
2018-10-16T11:59:07.158Z,37536.00
2018-10-16T12:00:07.140Z,37056.00
2018-10-16T12:01:07.128Z,35392.00
2018-10-16T12:02:07.123Z,32704.00
2018-10-16T12:03:07.091Z,32256.00
2018-10-16T12:04:07.082Z,33728.00
2018-10-16T12:05:07.064Z,35200.00
2018-10-16T12:06:07.076Z,34848.00
2018-10-16T12:07:07.139Z,34592.00
2018-10-16T12:08:07.084Z,34464.00
2018-10-16T12:09:07.000Z,34144.00
2018-10-16T12:10:07.002Z,34208.00
2018-10-16T12:11:07.020Z,35040.00
2018-10-16T12:12:06.955Z,34976.00
2018-10-16T12:13:06.972Z,33184.00
2018-10-16T12:14:06.995Z,30368.00
2018-10-16T12:15:06.910Z,30240.00
2018-10-16T12:16:06.893Z,32768.00
2018-10-16T12:17:06.880Z,34752.00
2018-10-16T12:18:06.867Z,35424.00
2018-10-16T12:19:06.909Z,34880.00
2018-10-16T12:20:06.914Z,33792.00
2018-10-16T12:21:06.823Z,33088.00
2018-10-16T12:22:06.803Z,33536.00
2018-10-16T12:23:06.788Z,34144.00
2018-10-16T12:24:06.793Z,33312.00
2018-10-16T12:25:06.769Z,31296.00
2018-10-16T12:26:06.744Z,30592.00